sensor_id;sensor_type;location;lat;lon;timestamp;temperature;humidity
68485;DHT22;55472;50.060;21.960;2024-01-11T00:01:50;-12.00;95.90
68485;DHT22;55472;50.060;21.960;2024-01-11T00:04:16;-11.90;96.20
68485;DHT22;55472;50.060;21.960;2024-01-11T00:06:43;-11.80;96.10
68485;DHT22;55472;50.060;21.960;2024-01-11T00:09:10;-11.70;96.10
68485;DHT22;55472;50.060;21.960;2024-01-11T00:11:36;-11.60;95.80
68485;DHT22;55472;50.060;21.960;2024-01-11T00:14:03;-11.50;95.50
68485;DHT22;55472;50.060;21.960;2024-01-11T00:16:29;-11.40;95.40
68485;DHT22;55472;50.060;21.960;2024-01-11T00:18:55;-11.40;95.20
68485;DHT22;55472;50.060;21.960;2024-01-11T00:21:21;-11.30;95.10
68485;DHT22;55472;50.060;21.960;2024-01-11T00:23:48;-11.20;95.00
68485;DHT22;55472;50.060;21.960;2024-01-11T00:26:15;-11.10;94.80
68485;DHT22;55472;50.060;21.960;2024-01-11T00:28:41;-11.10;94.50
68485;DHT22;55472;50.060;21.960;2024-01-11T00:31:07;-11.00;94.40
68485;DHT22;55472;50.060;21.960;2024-01-11T00:33:33;-10.90;94.30
68485;DHT22;55472;50.060;21.960;2024-01-11T00:35:59;-10.90;94.00
68485;DHT22;55472;50.060;21.960;2024-01-11T00:38:25;-10.80;93.50
68485;DHT22;55472;50.060;21.960;2024-01-11T00:40:51;-10.80;93.30
68485;DHT22;55472;50.060;21.960;2024-01-11T00:43:18;-10.80;93.30
68485;DHT22;55472;50.060;21.960;2024-01-11T00:45:45;-10.80;93.30
68485;DHT22;55472;50.060;21.960;2024-01-11T00:48:12;-10.80;93.20
68485;DHT22;55472;50.060;21.960;2024-01-11T00:50:38;-10.80;93.10
68485;DHT22;55472;50.060;21.960;2024-01-11T00:53:04;-10.80;92.90
68485;DHT22;55472;50.060;21.960;2024-01-11T00:55:30;-10.80;92.90
68485;DHT22;55472;50.060;21.960;2024-01-11T00:57:57;-10.80;93.10
68485;DHT22;55472;50.060;21.960;2024-01-11T01:00:22;-10.80;93.10
68485;DHT22;55472;50.060;21.960;2024-01-11T01:02:49;-10.70;93.50
68485;DHT22;55472;50.060;21.960;2024-01-11T01:05:15;-10.80;93.70
68485;DHT22;55472;50.060;21.960;2024-01-11T01:07:41;-10.70;93.80
68485;DHT22;55472;50.060;21.960;2024-01-11T01:10:07;-10.70;94.00
68485;DHT22;55472;50.060;21.960;2024-01-11T01:12:34;-10.70;94.10
68485;DHT22;55472;50.060;21.960;2024-01-11T01:15:00;-10.60;94.50
68485;DHT22;55472;50.060;21.960;2024-01-11T01:17:26;-10.50;94.80
68485;DHT22;55472;50.060;21.960;2024-01-11T01:19:52;-10.40;95.10
68485;DHT22;55472;50.060;21.960;2024-01-11T01:22:19;-10.40;95.10
68485;DHT22;55472;50.060;21.960;2024-01-11T01:24:45;-10.30;95.10
68485;DHT22;55472;50.060;21.960;2024-01-11T01:27:11;-10.20;95.30
68485;DHT22;55472;50.060;21.960;2024-01-11T01:29:37;-10.10;95.50
68485;DHT22;55472;50.060;21.960;2024-01-11T01:32:03;-10.10;95.60
68485;DHT22;55472;50.060;21.960;2024-01-11T01:34:30;-10.00;95.60
68485;DHT22;55472;50.060;21.960;2024-01-11T01:36:56;-9.90;95.40
68485;DHT22;55472;50.060;21.960;2024-01-11T01:39:22;-9.90;95.60
68485;DHT22;55472;50.060;21.960;2024-01-11T01:41:48;-9.80;95.80
68485;DHT22;55472;50.060;21.960;2024-01-11T01:44:14;-9.70;95.70
68485;DHT22;55472;50.060;21.960;2024-01-11T01:46:40;-9.70;95.50
68485;DHT22;55472;50.060;21.960;2024-01-11T01:49:07;-9.60;95.50
68485;DHT22;55472;50.060;21.960;2024-01-11T01:51:33;-9.60;95.30
68485;DHT22;55472;50.060;21.960;2024-01-11T01:54:00;-9.50;95.10
68485;DHT22;55472;50.060;21.960;2024-01-11T01:56:28;-9.50;94.90
68485;DHT22;55472;50.060;21.960;2024-01-11T01:58:55;-9.50;94.70
68485;DHT22;55472;50.060;21.960;2024-01-11T02:01:23;-9.50;94.50
68485;DHT22;55472;50.060;21.960;2024-01-11T02:03:52;-9.50;94.20
68485;DHT22;55472;50.060;21.960;2024-01-11T02:06:22;-9.50;94.10
68485;DHT22;55472;50.060;21.960;2024-01-11T02:08:52;-9.50;94.20
68485;DHT22;55472;50.060;21.960;2024-01-11T02:11:21;-9.50;94.30
68485;DHT22;55472;50.060;21.960;2024-01-11T02:13:50;-9.50;94.30
68485;DHT22;55472;50.060;21.960;2024-01-11T02:16:16;-9.50;94.50
68485;DHT22;55472;50.060;21.960;2024-01-11T02:18:42;-9.50;94.50
68485;DHT22;55472;50.060;21.960;2024-01-11T02:21:11;-9.50;94.60
68485;DHT22;55472;50.060;21.960;2024-01-11T02:23:43;-9.50;94.60
68485;DHT22;55472;50.060;21.960;2024-01-11T02:26:14;-9.50;94.60
68485;DHT22;55472;50.060;21.960;2024-01-11T02:28:44;-9.50;94.60
68485;DHT22;55472;50.060;21.960;2024-01-11T02:31:12;-9.50;94.70
68485;DHT22;55472;50.060;21.960;2024-01-11T02:33:39;-9.40;94.80
68485;DHT22;55472;50.060;21.960;2024-01-11T02:36:06;-9.40;94.70
68485;DHT22;55472;50.060;21.960;2024-01-11T02:38:33;-9.50;94.80
68485;DHT22;55472;50.060;21.960;2024-01-11T02:41:00;-9.40;94.90
68485;DHT22;55472;50.060;21.960;2024-01-11T02:43:26;-9.40;95.10
68485;DHT22;55472;50.060;21.960;2024-01-11T02:45:56;-9.40;95.00
68485;DHT22;55472;50.060;21.960;2024-01-11T02:48:28;-9.40;95.10
68485;DHT22;55472;50.060;21.960;2024-01-11T02:50:56;-9.40;95.10
68485;DHT22;55472;50.060;21.960;2024-01-11T02:53:23;-9.30;95.10
68485;DHT22;55472;50.060;21.960;2024-01-11T02:55:50;-9.30;94.90
68485;DHT22;55472;50.060;21.960;2024-01-11T02:58:17;-9.30;94.80
68485;DHT22;55472;50.060;21.960;2024-01-11T03:00:43;-9.20;94.80
68485;DHT22;55472;50.060;21.960;2024-01-11T03:03:09;-9.20;94.60
68485;DHT22;55472;50.060;21.960;2024-01-11T03:05:35;-9.20;94.40
68485;DHT22;55472;50.060;21.960;2024-01-11T03:08:01;-9.20;94.40
68485;DHT22;55472;50.060;21.960;2024-01-11T03:10:28;-9.20;94.30
68485;DHT22;55472;50.060;21.960;2024-01-11T03:12:54;-9.20;94.40
68485;DHT22;55472;50.060;21.960;2024-01-11T03:15:20;-9.20;94.40
68485;DHT22;55472;50.060;21.960;2024-01-11T03:17:46;-9.10;94.40
68485;DHT22;55472;50.060;21.960;2024-01-11T03:20:12;-9.20;94.40
68485;DHT22;55472;50.060;21.960;2024-01-11T03:22:45;-9.10;94.50
68485;DHT22;55472;50.060;21.960;2024-01-11T03:25:12;-9.10;94.50
68485;DHT22;55472;50.060;21.960;2024-01-11T03:27:38;-9.10;94.30
68485;DHT22;55472;50.060;21.960;2024-01-11T03:30:05;-9.10;94.30
68485;DHT22;55472;50.060;21.960;2024-01-11T03:32:32;-9.10;94.10
68485;DHT22;55472;50.060;21.960;2024-01-11T03:34:58;-9.10;94.20
68485;DHT22;55472;50.060;21.960;2024-01-11T03:37:24;-9.10;94.10
68485;DHT22;55472;50.060;21.960;2024-01-11T03:39:50;-9.10;94.10
68485;DHT22;55472;50.060;21.960;2024-01-11T03:42:16;-9.10;93.90
68485;DHT22;55472;50.060;21.960;2024-01-11T03:44:43;-9.10;93.80
68485;DHT22;55472;50.060;21.960;2024-01-11T03:47:09;-9.10;93.80
68485;DHT22;55472;50.060;21.960;2024-01-11T03:49:35;-9.10;93.70
68485;DHT22;55472;50.060;21.960;2024-01-11T03:52:01;-9.10;93.70
68485;DHT22;55472;50.060;21.960;2024-01-11T03:54:27;-9.10;93.70
68485;DHT22;55472;50.060;21.960;2024-01-11T03:56:53;-9.10;93.70
68485;DHT22;55472;50.060;21.960;2024-01-11T03:59:19;-9.10;93.70
68485;DHT22;55472;50.060;21.960;2024-01-11T04:01:45;-9.20;93.80
68485;DHT22;55472;50.060;21.960;2024-01-11T04:04:12;-9.20;93.50
68485;DHT22;55472;50.060;21.960;2024-01-11T04:06:38;-9.20;93.50
68485;DHT22;55472;50.060;21.960;2024-01-11T04:09:04;-9.20;93.60
68485;DHT22;55472;50.060;21.960;2024-01-11T04:11:30;-9.20;93.60
68485;DHT22;55472;50.060;21.960;2024-01-11T04:13:56;-9.20;93.60
68485;DHT22;55472;50.060;21.960;2024-01-11T04:16:22;-9.20;93.80
68485;DHT22;55472;50.060;21.960;2024-01-11T04:18:49;-9.30;94.00
68485;DHT22;55472;50.060;21.960;2024-01-11T04:21:24;-9.30;93.70
68485;DHT22;55472;50.060;21.960;2024-01-11T04:23:58;-9.40;94.00
68485;DHT22;55472;50.060;21.960;2024-01-11T04:26:24;-9.40;94.10
68485;DHT22;55472;50.060;21.960;2024-01-11T04:28:52;-9.50;93.70
68485;DHT22;55472;50.060;21.960;2024-01-11T04:31:18;-9.50;93.40
68485;DHT22;55472;50.060;21.960;2024-01-11T04:33:46;-9.60;93.30
68485;DHT22;55472;50.060;21.960;2024-01-11T04:36:12;-9.70;93.50
68485;DHT22;55472;50.060;21.960;2024-01-11T04:38:39;-9.70;93.90
68485;DHT22;55472;50.060;21.960;2024-01-11T04:41:09;-9.80;94.20
68485;DHT22;55472;50.060;21.960;2024-01-11T04:43:40;-9.80;94.40
68485;DHT22;55472;50.060;21.960;2024-01-11T04:46:17;-9.90;94.60
68485;DHT22;55472;50.060;21.960;2024-01-11T04:48:44;-9.90;93.90
68485;DHT22;55472;50.060;21.960;2024-01-11T04:51:11;-10.00;94.00
68485;DHT22;55472;50.060;21.960;2024-01-11T04:53:42;-10.10;94.50
68485;DHT22;55472;50.060;21.960;2024-01-11T04:56:11;-10.10;94.70
68485;DHT22;55472;50.060;21.960;2024-01-11T04:58:40;-10.20;95.10
68485;DHT22;55472;50.060;21.960;2024-01-11T05:01:14;-10.20;95.40
68485;DHT22;55472;50.060;21.960;2024-01-11T05:03:42;-10.30;95.80
68485;DHT22;55472;50.060;21.960;2024-01-11T05:06:19;-10.20;96.00
68485;DHT22;55472;50.060;21.960;2024-01-11T05:08:47;-10.30;96.20
68485;DHT22;55472;50.060;21.960;2024-01-11T05:11:22;-10.30;96.10
68485;DHT22;55472;50.060;21.960;2024-01-11T05:13:51;-10.40;95.90
68485;DHT22;55472;50.060;21.960;2024-01-11T05:18:47;-10.40;95.80
68485;DHT22;55472;50.060;21.960;2024-01-11T05:21:13;-10.50;96.00
68485;DHT22;55472;50.060;21.960;2024-01-11T05:23:43;-10.50;95.90
68485;DHT22;55472;50.060;21.960;2024-01-11T05:26:09;-10.60;95.80
68485;DHT22;55472;50.060;21.960;2024-01-11T05:28:36;-10.60;96.00
68485;DHT22;55472;50.060;21.960;2024-01-11T05:31:11;-10.60;96.30
68485;DHT22;55472;50.060;21.960;2024-01-11T05:33:39;-10.60;96.40
68485;DHT22;55472;50.060;21.960;2024-01-11T05:36:05;-10.70;96.60
68485;DHT22;55472;50.060;21.960;2024-01-11T05:38:32;-10.70;97.00
68485;DHT22;55472;50.060;21.960;2024-01-11T05:40:58;-10.70;97.20
68485;DHT22;55472;50.060;21.960;2024-01-11T05:43:25;-10.60;97.80
68485;DHT22;55472;50.060;21.960;2024-01-11T05:45:51;-10.60;97.90
68485;DHT22;55472;50.060;21.960;2024-01-11T05:48:18;-10.60;98.30
68485;DHT22;55472;50.060;21.960;2024-01-11T05:50:44;-10.50;98.80
68485;DHT22;55472;50.060;21.960;2024-01-11T05:53:14;-10.40;99.00
68485;DHT22;55472;50.060;21.960;2024-01-11T05:55:40;-10.30;99.50
68485;DHT22;55472;50.060;21.960;2024-01-11T05:58:06;-10.10;99.90
68485;DHT22;55472;50.060;21.960;2024-01-11T06:00:32;-9.80;99.90
68485;DHT22;55472;50.060;21.960;2024-01-11T06:02:58;-9.60;99.90
68485;DHT22;55472;50.060;21.960;2024-01-11T06:05:25;-9.40;99.90
68485;DHT22;55472;50.060;21.960;2024-01-11T06:07:52;-9.20;99.90
68485;DHT22;55472;50.060;21.960;2024-01-11T06:10:17;-8.90;99.90
68485;DHT22;55472;50.060;21.960;2024-01-11T06:12:44;-8.70;99.40
68485;DHT22;55472;50.060;21.960;2024-01-11T06:15:10;-8.60;98.70
68485;DHT22;55472;50.060;21.960;2024-01-11T06:17:36;-8.40;98.30
68485;DHT22;55472;50.060;21.960;2024-01-11T06:20:02;-8.30;97.80
68485;DHT22;55472;50.060;21.960;2024-01-11T06:22:29;-8.10;97.60
68485;DHT22;55472;50.060;21.960;2024-01-11T06:24:55;-7.90;97.20
68485;DHT22;55472;50.060;21.960;2024-01-11T06:27:21;-7.60;96.20
68485;DHT22;55472;50.060;21.960;2024-01-11T06:29:47;-7.50;95.60
68485;DHT22;55472;50.060;21.960;2024-01-11T06:32:14;-7.30;94.90
68485;DHT22;55472;50.060;21.960;2024-01-11T06:34:40;-7.20;94.10
68485;DHT22;55472;50.060;21.960;2024-01-11T06:37:12;-7.10;93.90
68485;DHT22;55472;50.060;21.960;2024-01-11T06:39:38;-6.90;93.60
68485;DHT22;55472;50.060;21.960;2024-01-11T06:42:04;-6.80;93.40
68485;DHT22;55472;50.060;21.960;2024-01-11T06:44:30;-6.60;92.90
68485;DHT22;55472;50.060;21.960;2024-01-11T06:46:57;-6.50;92.20
68485;DHT22;55472;50.060;21.960;2024-01-11T06:49:23;-6.40;91.80
68485;DHT22;55472;50.060;21.960;2024-01-11T06:51:49;-6.20;90.80
68485;DHT22;55472;50.060;21.960;2024-01-11T06:54:15;-6.10;90.50
68485;DHT22;55472;50.060;21.960;2024-01-11T06:56:41;-6.00;90.20
68485;DHT22;55472;50.060;21.960;2024-01-11T06:59:07;-5.90;89.70
68485;DHT22;55472;50.060;21.960;2024-01-11T07:01:33;-5.80;89.40
68485;DHT22;55472;50.060;21.960;2024-01-11T07:03:59;-5.70;89.10
68485;DHT22;55472;50.060;21.960;2024-01-11T07:06:26;-5.60;88.50
68485;DHT22;55472;50.060;21.960;2024-01-11T07:08:51;-5.50;87.50
68485;DHT22;55472;50.060;21.960;2024-01-11T07:11:18;-5.40;87.10
68485;DHT22;55472;50.060;21.960;2024-01-11T07:13:44;-5.30;86.90
68485;DHT22;55472;50.060;21.960;2024-01-11T07:16:10;-5.20;86.60
68485;DHT22;55472;50.060;21.960;2024-01-11T07:18:36;-5.10;85.80
68485;DHT22;55472;50.060;21.960;2024-01-11T07:21:02;-5.00;85.60
68485;DHT22;55472;50.060;21.960;2024-01-11T07:23:29;-4.90;85.10
68485;DHT22;55472;50.060;21.960;2024-01-11T07:25:55;-4.80;84.20
68485;DHT22;55472;50.060;21.960;2024-01-11T07:28:21;-4.70;83.30
68485;DHT22;55472;50.060;21.960;2024-01-11T07:30:54;-4.60;82.50
68485;DHT22;55472;50.060;21.960;2024-01-11T07:33:20;-4.40;81.90
68485;DHT22;55472;50.060;21.960;2024-01-11T07:35:47;-4.40;80.70
68485;DHT22;55472;50.060;21.960;2024-01-11T07:38:13;-4.30;80.20
68485;DHT22;55472;50.060;21.960;2024-01-11T07:40:40;-4.20;79.80
68485;DHT22;55472;50.060;21.960;2024-01-11T07:43:06;-4.20;79.70
68485;DHT22;55472;50.060;21.960;2024-01-11T07:45:32;-4.20;78.80
68485;DHT22;55472;50.060;21.960;2024-01-11T07:47:58;-4.20;78.40
68485;DHT22;55472;50.060;21.960;2024-01-11T07:50:25;-4.10;78.00
68485;DHT22;55472;50.060;21.960;2024-01-11T07:52:51;-4.10;77.60
68485;DHT22;55472;50.060;21.960;2024-01-11T07:55:17;-4.10;78.00
68485;DHT22;55472;50.060;21.960;2024-01-11T07:57:44;-4.10;77.40
68485;DHT22;55472;50.060;21.960;2024-01-11T08:00:10;-4.10;77.70
68485;DHT22;55472;50.060;21.960;2024-01-11T08:02:36;-4.10;77.70
68485;DHT22;55472;50.060;21.960;2024-01-11T08:05:04;-4.20;77.80
68485;DHT22;55472;50.060;21.960;2024-01-11T08:07:30;-4.20;78.70
68485;DHT22;55472;50.060;21.960;2024-01-11T08:09:56;-4.20;78.20
68485;DHT22;55472;50.060;21.960;2024-01-11T08:12:22;-4.20;78.60
68485;DHT22;55472;50.060;21.960;2024-01-11T08:14:49;-4.30;78.60
68485;DHT22;55472;50.060;21.960;2024-01-11T08:17:15;-4.30;79.20
68485;DHT22;55472;50.060;21.960;2024-01-11T08:19:41;-4.40;79.40
68485;DHT22;55472;50.060;21.960;2024-01-11T08:22:10;-4.40;79.20
68485;DHT22;55472;50.060;21.960;2024-01-11T08:24:39;-4.30;79.30
68485;DHT22;55472;50.060;21.960;2024-01-11T08:27:05;-4.30;79.50
68485;DHT22;55472;50.060;21.960;2024-01-11T08:29:32;-4.30;79.50
68485;DHT22;55472;50.060;21.960;2024-01-11T08:31:59;-4.30;79.40
68485;DHT22;55472;50.060;21.960;2024-01-11T08:34:27;-4.30;79.10
68485;DHT22;55472;50.060;21.960;2024-01-11T08:36:53;-4.30;78.40
68485;DHT22;55472;50.060;21.960;2024-01-11T08:39:19;-4.20;78.30
68485;DHT22;55472;50.060;21.960;2024-01-11T08:41:47;-4.20;78.40
68485;DHT22;55472;50.060;21.960;2024-01-11T08:44:13;-4.20;77.60
68485;DHT22;55472;50.060;21.960;2024-01-11T08:46:39;-4.10;76.30
68485;DHT22;55472;50.060;21.960;2024-01-11T08:49:06;-4.00;76.10
68485;DHT22;55472;50.060;21.960;2024-01-11T08:51:32;-4.00;74.20
68485;DHT22;55472;50.060;21.960;2024-01-11T08:53:58;-3.90;72.80
68485;DHT22;55472;50.060;21.960;2024-01-11T08:56:24;-3.80;72.30
68485;DHT22;55472;50.060;21.960;2024-01-11T08:58:51;-3.80;71.30
68485;DHT22;55472;50.060;21.960;2024-01-11T09:01:17;-3.70;69.60
68485;DHT22;55472;50.060;21.960;2024-01-11T09:03:44;-3.60;69.50
68485;DHT22;55472;50.060;21.960;2024-01-11T09:06:10;-3.50;69.20
68485;DHT22;55472;50.060;21.960;2024-01-11T09:08:37;-3.40;68.20
68485;DHT22;55472;50.060;21.960;2024-01-11T09:11:03;-3.40;68.70
68485;DHT22;55472;50.060;21.960;2024-01-11T09:13:29;-3.30;68.30
68485;DHT22;55472;50.060;21.960;2024-01-11T09:15:55;-3.30;67.50
68485;DHT22;55472;50.060;21.960;2024-01-11T09:18:21;-3.30;65.90
68485;DHT22;55472;50.060;21.960;2024-01-11T09:20:47;-3.20;66.10
68485;DHT22;55472;50.060;21.960;2024-01-11T09:23:15;-3.20;66.70
68485;DHT22;55472;50.060;21.960;2024-01-11T09:25:42;-3.20;66.20
68485;DHT22;55472;50.060;21.960;2024-01-11T09:28:08;-3.20;66.80
68485;DHT22;55472;50.060;21.960;2024-01-11T09:30:34;-3.20;67.30
68485;DHT22;55472;50.060;21.960;2024-01-11T09:33:00;-3.20;67.10
68485;DHT22;55472;50.060;21.960;2024-01-11T09:35:27;-3.10;67.30
68485;DHT22;55472;50.060;21.960;2024-01-11T09:37:53;-3.10;67.90
68485;DHT22;55472;50.060;21.960;2024-01-11T09:40:19;-3.10;68.40
68485;DHT22;55472;50.060;21.960;2024-01-11T09:42:46;-3.00;68.50
68485;DHT22;55472;50.060;21.960;2024-01-11T09:45:16;-2.90;68.70
68485;DHT22;55472;50.060;21.960;2024-01-11T09:47:46;-2.90;69.00
68485;DHT22;55472;50.060;21.960;2024-01-11T09:50:16;-2.90;69.70
68485;DHT22;55472;50.060;21.960;2024-01-11T09:52:48;-2.90;70.60
68485;DHT22;55472;50.060;21.960;2024-01-11T09:55:15;-2.90;71.10
68485;DHT22;55472;50.060;21.960;2024-01-11T09:57:48;-2.80;71.60
68485;DHT22;55472;50.060;21.960;2024-01-11T10:00:18;-2.90;71.40
68485;DHT22;55472;50.060;21.960;2024-01-11T10:02:46;-2.90;71.80
68485;DHT22;55472;50.060;21.960;2024-01-11T10:05:12;-2.90;71.60
68485;DHT22;55472;50.060;21.960;2024-01-11T10:07:42;-2.90;72.30
68485;DHT22;55472;50.060;21.960;2024-01-11T10:10:08;-2.90;72.20
68485;DHT22;55472;50.060;21.960;2024-01-11T10:12:36;-2.90;73.00
68485;DHT22;55472;50.060;21.960;2024-01-11T10:15:08;-2.90;73.60
68485;DHT22;55472;50.060;21.960;2024-01-11T10:17:41;-2.80;73.30
68485;DHT22;55472;50.060;21.960;2024-01-11T10:20:14;-2.80;73.70
68485;DHT22;55472;50.060;21.960;2024-01-11T10:22:43;-2.80;73.90
68485;DHT22;55472;50.060;21.960;2024-01-11T10:27:40;-2.60;73.50
68485;DHT22;55472;50.060;21.960;2024-01-11T10:30:12;-2.60;74.10
68485;DHT22;55472;50.060;21.960;2024-01-11T10:32:39;-2.50;73.80
68485;DHT22;55472;50.060;21.960;2024-01-11T10:35:05;-2.50;73.30
68485;DHT22;55472;50.060;21.960;2024-01-11T10:37:32;-2.50;73.80
68485;DHT22;55472;50.060;21.960;2024-01-11T10:40:03;-2.50;74.10
68485;DHT22;55472;50.060;21.960;2024-01-11T10:42:39;-2.50;73.70
68485;DHT22;55472;50.060;21.960;2024-01-11T10:45:15;-2.50;73.90
68485;DHT22;55472;50.060;21.960;2024-01-11T10:47:54;-2.50;74.30
68485;DHT22;55472;50.060;21.960;2024-01-11T10:50:23;-2.60;74.50
68485;DHT22;55472;50.060;21.960;2024-01-11T10:53:04;-2.60;74.20
68485;DHT22;55472;50.060;21.960;2024-01-11T10:55:36;-2.60;74.20
68485;DHT22;55472;50.060;21.960;2024-01-11T10:58:03;-2.60;74.50
68485;DHT22;55472;50.060;21.960;2024-01-11T11:00:31;-2.60;73.00
68485;DHT22;55472;50.060;21.960;2024-01-11T11:02:59;-2.60;73.20
68485;DHT22;55472;50.060;21.960;2024-01-11T11:05:27;-2.60;72.80
68485;DHT22;55472;50.060;21.960;2024-01-11T11:07:56;-2.60;73.30
68485;DHT22;55472;50.060;21.960;2024-01-11T11:10:22;-2.60;73.00
68485;DHT22;55472;50.060;21.960;2024-01-11T11:12:49;-2.70;73.80
68485;DHT22;55472;50.060;21.960;2024-01-11T11:15:15;-2.70;73.10
68485;DHT22;55472;50.060;21.960;2024-01-11T11:17:42;-2.70;73.10
68485;DHT22;55472;50.060;21.960;2024-01-11T11:20:12;-2.80;73.80
68485;DHT22;55472;50.060;21.960;2024-01-11T11:22:40;-2.80;74.20
68485;DHT22;55472;50.060;21.960;2024-01-11T11:25:10;-2.80;73.80
68485;DHT22;55472;50.060;21.960;2024-01-11T11:27:37;-2.90;74.50
68485;DHT22;55472;50.060;21.960;2024-01-11T11:30:04;-2.90;74.20
68485;DHT22;55472;50.060;21.960;2024-01-11T11:32:38;-2.90;73.60
68485;DHT22;55472;50.060;21.960;2024-01-11T11:35:08;-3.00;73.90
68485;DHT22;55472;50.060;21.960;2024-01-11T11:37:38;-3.00;74.50
68485;DHT22;55472;50.060;21.960;2024-01-11T11:40:09;-3.00;74.00
68485;DHT22;55472;50.060;21.960;2024-01-11T11:42:39;-3.10;73.70
68485;DHT22;55472;50.060;21.960;2024-01-11T11:45:07;-3.10;73.50
68485;DHT22;55472;50.060;21.960;2024-01-11T11:47:37;-3.10;74.00
68485;DHT22;55472;50.060;21.960;2024-01-11T11:50:10;-3.10;74.70
68485;DHT22;55472;50.060;21.960;2024-01-11T11:52:38;-3.20;75.20
68485;DHT22;55472;50.060;21.960;2024-01-11T11:55:08;-3.20;75.10
68485;DHT22;55472;50.060;21.960;2024-01-11T11:57:35;-3.20;75.50
68485;DHT22;55472;50.060;21.960;2024-01-11T12:00:02;-3.20;76.50
68485;DHT22;55472;50.060;21.960;2024-01-11T12:02:32;-3.20;78.40
68485;DHT22;55472;50.060;21.960;2024-01-11T12:05:02;-3.20;78.80
68485;DHT22;55472;50.060;21.960;2024-01-11T12:07:30;-3.30;79.70
68485;DHT22;55472;50.060;21.960;2024-01-11T12:09:56;-3.30;79.60
68485;DHT22;55472;50.060;21.960;2024-01-11T12:12:23;-3.40;80.10
68485;DHT22;55472;50.060;21.960;2024-01-11T12:14:49;-3.40;80.50
68485;DHT22;55472;50.060;21.960;2024-01-11T12:17:16;-3.40;80.80
68485;DHT22;55472;50.060;21.960;2024-01-11T12:19:42;-3.50;81.50
68485;DHT22;55472;50.060;21.960;2024-01-11T12:22:09;-3.50;81.50
68485;DHT22;55472;50.060;21.960;2024-01-11T12:24:35;-3.50;81.30
68485;DHT22;55472;50.060;21.960;2024-01-11T12:27:01;-3.50;81.50
68485;DHT22;55472;50.060;21.960;2024-01-11T12:29:31;-3.60;81.40
68485;DHT22;55472;50.060;21.960;2024-01-11T12:31:57;-3.60;81.70
68485;DHT22;55472;50.060;21.960;2024-01-11T12:34:26;-3.60;81.30
68485;DHT22;55472;50.060;21.960;2024-01-11T12:36:53;-3.60;81.10
68485;DHT22;55472;50.060;21.960;2024-01-11T12:39:24;-3.50;80.70
68485;DHT22;55472;50.060;21.960;2024-01-11T12:41:51;-3.50;80.70
68485;DHT22;55472;50.060;21.960;2024-01-11T12:44:19;-3.40;80.90
68485;DHT22;55472;50.060;21.960;2024-01-11T12:46:48;-3.40;80.50
68485;DHT22;55472;50.060;21.960;2024-01-11T12:49:18;-3.40;80.70
68485;DHT22;55472;50.060;21.960;2024-01-11T12:51:44;-3.40;80.50
68485;DHT22;55472;50.060;21.960;2024-01-11T12:54:12;-3.40;80.50
68485;DHT22;55472;50.060;21.960;2024-01-11T12:56:45;-3.40;79.90
68485;DHT22;55472;50.060;21.960;2024-01-11T12:59:12;-3.40;80.00
68485;DHT22;55472;50.060;21.960;2024-01-11T13:01:38;-3.40;80.20
68485;DHT22;55472;50.060;21.960;2024-01-11T13:04:07;-3.40;80.50
68485;DHT22;55472;50.060;21.960;2024-01-11T13:06:34;-3.40;80.60
68485;DHT22;55472;50.060;21.960;2024-01-11T13:09:01;-3.40;80.60
68485;DHT22;55472;50.060;21.960;2024-01-11T13:11:29;-3.40;81.10
68485;DHT22;55472;50.060;21.960;2024-01-11T13:13:55;-3.40;81.50
68485;DHT22;55472;50.060;21.960;2024-01-11T13:16:24;-3.30;81.20
68485;DHT22;55472;50.060;21.960;2024-01-11T13:18:51;-3.30;81.10
68485;DHT22;55472;50.060;21.960;2024-01-11T13:21:17;-3.30;81.30
68485;DHT22;55472;50.060;21.960;2024-01-11T13:23:43;-3.30;81.20
68485;DHT22;55472;50.060;21.960;2024-01-11T13:26:09;-3.20;81.40
68485;DHT22;55472;50.060;21.960;2024-01-11T13:28:35;-3.30;81.00
68485;DHT22;55472;50.060;21.960;2024-01-11T13:31:01;-3.20;80.50
68485;DHT22;55472;50.060;21.960;2024-01-11T13:33:28;-3.30;80.40
68485;DHT22;55472;50.060;21.960;2024-01-11T13:35:54;-3.30;80.70
68485;DHT22;55472;50.060;21.960;2024-01-11T13:38:20;-3.30;80.90
68485;DHT22;55472;50.060;21.960;2024-01-11T13:40:46;-3.30;81.80
68485;DHT22;55472;50.060;21.960;2024-01-11T13:43:13;-3.40;83.10
68485;DHT22;55472;50.060;21.960;2024-01-11T13:45:39;-3.40;84.70
68485;DHT22;55472;50.060;21.960;2024-01-11T13:48:06;-3.40;85.70
68485;DHT22;55472;50.060;21.960;2024-01-11T13:50:32;-3.50;87.00
68485;DHT22;55472;50.060;21.960;2024-01-11T13:52:59;-3.60;88.40
68485;DHT22;55472;50.060;21.960;2024-01-11T13:55:26;-3.60;89.40
68485;DHT22;55472;50.060;21.960;2024-01-11T13:57:52;-3.70;90.60
68485;DHT22;55472;50.060;21.960;2024-01-11T14:00:19;-3.70;91.90
68485;DHT22;55472;50.060;21.960;2024-01-11T14:02:47;-3.80;92.50
68485;DHT22;55472;50.060;21.960;2024-01-11T14:05:14;-3.80;93.40
68485;DHT22;55472;50.060;21.960;2024-01-11T14:07:43;-3.90;94.30
68485;DHT22;55472;50.060;21.960;2024-01-11T14:10:12;-3.90;95.00
68485;DHT22;55472;50.060;21.960;2024-01-11T14:12:39;-4.00;95.70
68485;DHT22;55472;50.060;21.960;2024-01-11T14:15:07;-4.00;96.50
68485;DHT22;55472;50.060;21.960;2024-01-11T14:17:38;-4.10;97.00
68485;DHT22;55472;50.060;21.960;2024-01-11T14:20:06;-4.10;97.50
68485;DHT22;55472;50.060;21.960;2024-01-11T14:22:37;-4.10;98.10
68485;DHT22;55472;50.060;21.960;2024-01-11T14:25:04;-4.20;98.60
68485;DHT22;55472;50.060;21.960;2024-01-11T14:27:30;-4.20;99.20
68485;DHT22;55472;50.060;21.960;2024-01-11T14:29:57;-4.20;99.90
68485;DHT22;55472;50.060;21.960;2024-01-11T14:32:24;-4.30;99.90
68485;DHT22;55472;50.060;21.960;2024-01-11T14:34:52;-4.30;99.90
68485;DHT22;55472;50.060;21.960;2024-01-11T14:37:19;-4.30;99.90
68485;DHT22;55472;50.060;21.960;2024-01-11T14:39:45;-4.40;99.90
68485;DHT22;55472;50.060;21.960;2024-01-11T14:42:11;-4.40;99.90
68485;DHT22;55472;50.060;21.960;2024-01-11T14:44:37;-4.40;99.90
68485;DHT22;55472;50.060;21.960;2024-01-11T14:47:04;-4.50;99.90
68485;DHT22;55472;50.060;21.960;2024-01-11T14:49:30;-4.50;99.90
68485;DHT22;55472;50.060;21.960;2024-01-11T14:51:56;-4.50;99.90
68485;DHT22;55472;50.060;21.960;2024-01-11T14:54:22;-4.60;99.90
68485;DHT22;55472;50.060;21.960;2024-01-11T14:56:49;-4.60;99.90
68485;DHT22;55472;50.060;21.960;2024-01-11T14:59:15;-4.60;99.90
68485;DHT22;55472;50.060;21.960;2024-01-11T15:01:41;-4.60;99.90
68485;DHT22;55472;50.060;21.960;2024-01-11T15:04:07;-4.70;99.90
68485;DHT22;55472;50.060;21.960;2024-01-11T15:06:33;-4.70;99.90
68485;DHT22;55472;50.060;21.960;2024-01-11T15:08:59;-4.70;99.90
68485;DHT22;55472;50.060;21.960;2024-01-11T15:11:26;-4.70;99.90
68485;DHT22;55472;50.060;21.960;2024-01-11T15:13:53;-4.80;99.90
68485;DHT22;55472;50.060;21.960;2024-01-11T15:16:19;-4.80;99.90
68485;DHT22;55472;50.060;21.960;2024-01-11T15:18:45;-4.80;99.90